Time;durP1;ratioP1;P1;durP2;ratioP2;P2;SDS_P1;SDS_P2;PMS_P1;PMS_P2;Temp;Humidity;BMP_temperature;BMP_pressure;BME280_temperature;BME280_humidity;BME280_pressure;Samples;Min_cycle;Max_cycle;Signal;HPM_P1;HPM_P2
2022/11/19 00:00:39;;;;;;;;;;;;;;;17.74;48.34;99444.23;102026;1328;61441;-82
2022/11/19 00:03:05;;;;;;;;;;;;;;;17.74;48.20;99449.38;101985;1329;61295;-82
2022/11/19 00:05:30;;;;;;;;;;;;;;;17.75;48.30;99452.36;101957;1325;61342;-82
2022/11/19 00:07:55;;;;;;;;;;;;;;;17.74;48.26;99468.24;101931;1326;61443;-82
2022/11/19 00:10:22;;;;;;;;;;;;;;;17.74;48.27;99474.27;101987;1328;61324;-83
2022/11/19 00:12:53;;;;;;;;;;;;;;;17.74;48.26;99467.88;101967;1332;61367;-82
2022/11/19 00:15:19;;;;;;;;;;;;;;;17.74;48.24;99482.27;101953;1318;72691;-83
2022/11/19 00:17:44;;;;;;;;;;;;;;;17.74;48.34;99482.25;101944;1328;61485;-82
2022/11/19 00:20:10;;;;;;;;;;;;;;;17.74;48.30;99476.95;101952;1334;61304;-82
2022/11/19 00:22:35;;;;;;;;;;;;;;;17.74;48.20;99481.74;101994;1329;61295;-82
2022/11/19 00:25:01;;;;;;;;;;;;;;;17.74;48.27;99489.39;101978;1328;61336;-82
2022/11/19 00:27:26;;;;;;;;;;;;;;;17.74;48.15;99495.61;101964;1330;61383;-82
2022/11/19 00:29:51;;;;;;;;;;;;;;;17.74;48.18;99494.55;101945;1328;61320;-81
2022/11/19 00:32:17;;;;;;;;;;;;;;;17.74;48.14;99486.73;101966;1328;61403;-82
2022/11/19 00:34:42;;;;;;;;;;;;;;;17.74;48.22;99486.03;101959;1328;61474;-82
2022/11/19 00:37:08;;;;;;;;;;;;;;;17.74;48.23;99489.93;102015;1330;61504;-82
2022/11/19 00:39:33;;;;;;;;;;;;;;;17.74;48.14;99495.64;101964;1332;61373;-82
2022/11/19 00:42:01;;;;;;;;;;;;;;;17.74;48.22;99508.80;102035;1327;61338;-83
2022/11/19 00:44:26;;;;;;;;;;;;;;;17.74;48.22;99511.30;101974;1325;61210;-82
2022/11/19 00:46:52;;;;;;;;;;;;;;;17.74;48.22;99503.99;101981;1331;61321;-82
2022/11/19 00:49:17;;;;;;;;;;;;;;;17.74;48.17;99506.46;101967;1328;61376;-82
2022/11/19 00:51:43;;;;;;;;;;;;;;;17.74;48.23;99518.38;101919;1333;61377;-83
2022/11/19 00:54:08;;;;;;;;;;;;;;;17.74;48.27;99522.30;101969;1328;59964;-82
2022/11/19 00:56:33;;;;;;;;;;;;;;;17.74;48.35;99534.42;101939;1326;61342;-82
2022/11/19 00:58:59;;;;;;;;;;;;;;;17.74;48.20;99540.30;102032;1331;61302;-82
2022/11/19 01:01:24;;;;;;;;;;;;;;;17.75;48.18;99537.95;102056;1329;61320;-83
2022/11/19 01:03:50;;;;;;;;;;;;;;;17.74;48.23;99540.83;101984;1328;61390;-82
2022/11/19 01:06:16;;;;;;;;;;;;;;;17.74;48.33;99532.81;101986;1329;74563;-82
2022/11/19 01:08:41;;;;;;;;;;;;;;;17.74;48.36;99532.48;102045;1329;61208;-82
2022/11/19 01:11:08;;;;;;;;;;;;;;;17.74;48.25;99544.39;101978;1329;61301;-82
2022/11/19 01:13:33;;;;;;;;;;;;;;;17.74;48.31;99554.00;101974;1328;61179;-82
2022/11/19 01:15:59;;;;;;;;;;;;;;;17.74;48.26;99558.10;101972;1332;61333;-82
2022/11/19 01:18:48;;;;;;;;;;;;;;;17.74;48.23;99563.96;101943;1332;60148;-82
2022/11/19 01:21:13;;;;;;;;;;;;;;;17.74;48.31;99565.58;101787;1335;62116;-83
2022/11/19 01:23:39;;;;;;;;;;;;;;;17.74;48.22;99566.11;101716;1338;61293;-83
2022/11/19 01:26:04;;;;;;;;;;;;;;;17.74;48.19;99573.39;101727;1334;61483;-82
2022/11/19 01:28:30;;;;;;;;;;;;;;;17.75;48.26;99584.38;101719;1337;61333;-83
2022/11/19 01:30:55;;;;;;;;;;;;;;;17.75;48.27;99579.42;101745;1334;61330;-82
2022/11/19 01:33:21;;;;;;;;;;;;;;;17.74;48.32;99589.02;101721;1336;61544;-82
2022/11/19 01:35:59;;;;;;;;;;;;;;;17.74;48.22;99592.79;101713;1340;61334;-82
2022/11/19 01:38:24;;;;;;;;;;;;;;;17.74;48.29;99604.88;101679;1342;72294;-82
2022/11/19 01:40:50;;;;;;;;;;;;;;;17.74;48.31;99607.02;101787;1334;61439;-83
2022/11/19 01:43:15;;;;;;;;;;;;;;;17.74;48.29;99610.91;101737;1338;61347;-82
2022/11/19 01:45:42;;;;;;;;;;;;;;;17.74;48.38;99618.58;101784;1331;61323;-82
2022/11/19 01:48:13;;;;;;;;;;;;;;;17.74;48.29;99623.38;101774;1334;61275;-83
2022/11/19 01:50:49;;;;;;;;;;;;;;;17.75;48.31;99617.49;101781;1334;61316;-83
2022/11/19 01:53:14;;;;;;;;;;;;;;;17.74;48.29;99621.95;101715;1338;61373;-82
2022/11/19 01:55:40;;;;;;;;;;;;;;;17.75;48.35;99628.02;101721;1335;61425;-82
2022/11/19 01:58:05;;;;;;;;;;;;;;;17.74;48.28;99634.77;101847;1329;61316;-82
2022/11/19 02:00:31;;;;;;;;;;;;;;;17.74;48.34;99640.13;101938;1328;61417;-82
2022/11/19 02:02:58;;;;;;;;;;;;;;;17.74;48.30;99640.64;101946;1335;61132;-81
2022/11/19 02:05:24;;;;;;;;;;;;;;;17.74;48.37;99644.56;101936;1334;61308;-82
2022/11/19 02:07:53;;;;;;;;;;;;;;;17.74;48.31;99641.34;101969;1335;61326;-82
2022/11/19 02:10:18;;;;;;;;;;;;;;;17.74;48.30;99643.50;102000;1334;75441;-82
2022/11/19 02:12:52;;;;;;;;;;;;;;;17.74;48.32;99660.59;101979;1332;61333;-82
2022/11/19 02:15:20;;;;;;;;;;;;;;;17.74;48.32;99667.16;101971;1336;62309;-82
2022/11/19 02:17:50;;;;;;;;;;;;;;;17.74;48.38;99668.42;102028;1328;71960;-82
2022/11/19 02:20:34;;;;;;;;;;;;;;;17.74;48.27;99664.15;102046;1328;75305;-83
2022/11/19 02:23:19;;;;;;;;;;;;;;;17.74;48.33;99666.80;102035;1328;61295;-82
2022/11/19 02:25:56;;;;;;;;;;;;;;;17.74;48.37;99667.89;101940;1328;61309;-82
2022/11/19 02:28:41;;;;;;;;;;;;;;;17.74;48.33;99671.98;101926;1334;72651;-82
2022/11/19 02:31:18;;;;;;;;;;;;;;;17.74;48.47;99682.86;101969;1328;74008;-82
2022/11/19 02:33:49;;;;;;;;;;;;;;;17.74;48.40;99692.80;101960;1328;61212;-82
2022/11/19 02:36:18;;;;;;;;;;;;;;;17.74;48.37;99693.37;101958;1326;61420;-82
2022/11/19 02:38:48;;;;;;;;;;;;;;;17.74;48.30;99694.05;101915;1336;72686;-82
2022/11/19 02:46:44;;;;;;;;;;;;;;;17.74;48.24;99704.02;101907;1331;61849;-83
2022/11/19 02:49:09;;;;;;;;;;;;;;;17.74;48.41;99711.48;101891;1331;61298;-81
2022/11/19 02:51:35;;;;;;;;;;;;;;;17.74;48.30;99707.39;101895;1331;61356;-82
2022/11/19 02:54:00;;;;;;;;;;;;;;;17.73;48.32;99711.36;101883;1333;61307;-82
2022/11/19 02:56:44;;;;;;;;;;;;;;;17.74;48.37;99721.83;101906;1336;61351;-81
2022/11/19 03:04:37;;;;;;;;;;;;;;;17.74;48.38;99745.52;101916;1334;74486;-82
2022/11/19 03:07:07;;;;;;;;;;;;;;;17.74;48.25;99749.61;101887;1333;61352;-82
2022/11/19 03:09:33;;;;;;;;;;;;;;;17.74;48.40;99753.86;101905;1334;61219;-82
2022/11/19 03:12:08;;;;;;;;;;;;;;;17.74;48.32;99757.44;101929;1334;61216;-82
2022/11/19 03:17:27;;;;;;;;;;;;;;;17.73;48.41;99768.66;101901;1330;61212;-81
2022/11/19 03:19:52;;;;;;;;;;;;;;;17.73;48.39;99767.96;101927;1334;61820;-82
2022/11/19 03:22:26;;;;;;;;;;;;;;;17.73;48.44;99775.08;101946;1334;61293;-82
2022/11/19 03:24:59;;;;;;;;;;;;;;;17.73;48.37;99788.76;101920;1331;73230;-81
2022/11/19 03:27:26;;;;;;;;;;;;;;;17.73;48.45;99799.09;101975;1334;61252;-82
2022/11/19 03:29:52;;;;;;;;;;;;;;;17.73;48.37;99800.88;101979;1332;61641;-83
2022/11/19 03:32:22;;;;;;;;;;;;;;;17.73;48.44;99811.36;101990;1334;61341;-82
2022/11/19 03:34:49;;;;;;;;;;;;;;;17.73;48.38;99810.83;102040;1332;75479;-82
2022/11/19 03:37:15;;;;;;;;;;;;;;;17.74;48.32;99813.48;101967;1330;61319;-82
2022/11/19 03:39:40;;;;;;;;;;;;;;;17.74;48.48;99823.83;101966;1334;61472;-82
2022/11/19 03:42:07;;;;;;;;;;;;;;;17.73;48.46;99828.29;101945;1335;61830;-82
2022/11/19 03:44:34;;;;;;;;;;;;;;;17.73;48.43;99836.30;101965;1335;61409;-82
2022/11/19 03:47:00;;;;;;;;;;;;;;;17.74;48.37;99844.82;101991;1334;61184;-82
2022/11/19 03:49:27;;;;;;;;;;;;;;;17.73;48.34;99853.02;101980;1326;61732;-82
2022/11/19 03:51:54;;;;;;;;;;;;;;;17.73;48.37;99859.25;101969;1326;61323;-82
2022/11/19 03:54:20;;;;;;;;;;;;;;;17.73;48.40;99867.61;102078;1325;61216;-82
2022/11/19 03:56:45;;;;;;;;;;;;;;;17.74;48.47;99872.58;101964;1334;61277;-83
2022/11/19 03:59:11;;;;;;;;;;;;;;;17.73;48.45;99874.54;101967;1334;61360;-82
2022/11/19 04:01:37;;;;;;;;;;;;;;;17.73;48.51;99871.36;101952;1334;61826;-81
2022/11/19 04:06:47;;;;;;;;;;;;;;;17.73;48.55;99872.43;101985;1334;61235;-82
2022/11/19 04:09:12;;;;;;;;;;;;;;;17.73;48.44;99872.08;101946;1334;61266;-82
2022/11/19 04:11:38;;;;;;;;;;;;;;;17.73;48.45;99878.66;102033;1331;61406;-82
2022/11/19 04:14:04;;;;;;;;;;;;;;;17.73;48.50;99884.56;101949;1331;61399;-82
2022/11/19 04:16:29;;;;;;;;;;;;;;;17.72;48.44;99888.69;102014;1331;59324;-82
2022/11/19 04:18:54;;;;;;;;;;;;;;;17.73;48.57;99889.02;101985;1335;61331;-82
2022/11/19 04:21:20;;;;;;;;;;;;;;;17.72;48.47;99900.44;101950;1334;61324;-82
2022/11/19 04:23:45;;;;;;;;;;;;;;;17.73;48.38;99903.08;101956;1333;61408;-82
2022/11/19 04:26:11;;;;;;;;;;;;;;;17.72;48.54;99901.84;101932;1334;61274;-82
2022/11/19 04:28:36;;;;;;;;;;;;;;;17.72;48.40;99903.46;102007;1331;61359;-81
2022/11/19 04:31:02;;;;;;;;;;;;;;;17.72;48.44;99908.31;101963;1329;61480;-83
2022/11/19 04:33:27;;;;;;;;;;;;;;;17.72;48.43;99911.33;101968;1331;61443;-83
2022/11/19 04:35:52;;;;;;;;;;;;;;;17.72;48.38;99916.83;101964;1336;61316;-83
2022/11/19 04:38:18;;;;;;;;;;;;;;;17.72;48.37;99920.93;102012;1331;61423;-82
2022/11/19 04:40:43;;;;;;;;;;;;;;;17.72;48.42;99926.10;102002;1335;61309;-82
2022/11/19 04:43:09;;;;;;;;;;;;;;;17.71;48.42;99931.13;101965;1325;61354;-82
2022/11/19 04:45:34;;;;;;;;;;;;;;;17.71;48.43;99930.59;101969;1334;61427;-82
2022/11/19 04:47:59;;;;;;;;;;;;;;;17.71;48.43;99926.31;101952;1329;61291;-82
2022/11/19 04:50:25;;;;;;;;;;;;;;;17.71;48.51;99920.98;102033;1334;61374;-81
2022/11/19 04:52:50;;;;;;;;;;;;;;;17.71;48.38;99928.65;102033;1327;75760;-82
2022/11/19 04:55:16;;;;;;;;;;;;;;;17.71;48.38;99933.77;101971;1319;61380;-83
2022/11/19 04:57:41;;;;;;;;;;;;;;;17.71;48.36;99947.16;101971;1332;61335;-83
2022/11/19 05:00:07;;;;;;;;;;;;;;;17.71;48.38;99945.56;102042;1317;61382;-80
2022/11/19 05:02:32;;;;;;;;;;;;;;;17.71;48.46;99950.34;101991;1326;61425;-82
2022/11/19 05:04:57;;;;;;;;;;;;;;;17.71;48.43;99955.17;101981;1332;60628;-82
2022/11/19 05:07:23;;;;;;;;;;;;;;;17.71;48.42;99964.06;101951;1326;61294;-82
2022/11/19 05:09:48;;;;;;;;;;;;;;;17.72;48.53;99971.66;101945;1333;61318;-82
2022/11/19 05:12:14;;;;;;;;;;;;;;;17.71;48.48;99978.11;101949;1329;61411;-83
2022/11/19 05:14:39;;;;;;;;;;;;;;;17.71;48.40;99972.41;101994;1329;60053;-82
2022/11/19 05:17:04;;;;;;;;;;;;;;;17.71;48.65;99979.01;101935;1333;61312;-83
2022/11/19 05:19:30;;;;;;;;;;;;;;;17.71;48.57;99979.92;101945;1331;62527;-82
2022/11/19 05:21:55;;;;;;;;;;;;;;;17.71;48.42;99982.58;101956;1328;61755;-83
2022/11/19 05:24:21;;;;;;;;;;;;;;;17.71;48.45;99983.84;101915;1334;61359;-83
2022/11/19 05:26:46;;;;;;;;;;;;;;;17.71;48.41;99989.36;101956;1336;71729;-83
2022/11/19 05:29:11;;;;;;;;;;;;;;;17.70;48.44;99992.59;101892;1334;61870;-82
2022/11/19 05:31:37;;;;;;;;;;;;;;;17.71;48.44;100000.75;101901;1336;61777;-82
2022/11/19 05:34:02;;;;;;;;;;;;;;;17.71;48.45;100000.39;101958;1329;61391;-82
2022/11/19 05:36:28;;;;;;;;;;;;;;;17.71;48.48;100003.95;101914;1329;61358;-82
2022/11/19 05:38:53;;;;;;;;;;;;;;;17.70;48.58;100003.77;101933;1327;61440;-81
2022/11/19 05:41:19;;;;;;;;;;;;;;;17.71;48.57;100002.17;101886;1335;61339;-81
2022/11/19 05:43:44;;;;;;;;;;;;;;;17.71;48.58;100001.64;101888;1330;61340;-83
2022/11/19 05:46:09;;;;;;;;;;;;;;;17.70;48.52;100011.61;101886;1336;61347;-82
2022/11/19 05:48:35;;;;;;;;;;;;;;;17.71;48.60;100022.98;101932;1336;61330;-82
2022/11/19 05:51:01;;;;;;;;;;;;;;;17.71;48.42;100022.78;101344;1328;725012;-82
2022/11/19 05:53:27;;;;;;;;;;;;;;;17.71;48.45;100016.20;101935;1328;61327;-82
2022/11/19 05:55:52;;;;;;;;;;;;;;;17.71;48.48;100019.73;101905;1329;61309;-83
2022/11/19 05:58:17;;;;;;;;;;;;;;;17.72;48.49;100024.33;101900;1329;61336;-81
2022/11/19 06:00:43;;;;;;;;;;;;;;;17.72;48.49;100036.60;101948;1329;61475;-82
2022/11/19 06:03:08;;;;;;;;;;;;;;;17.72;48.56;100044.45;101858;1337;61323;-82
2022/11/19 06:05:34;;;;;;;;;;;;;;;17.72;48.52;100049.41;101949;1328;61386;-82
2022/11/19 06:07:59;;;;;;;;;;;;;;;17.72;48.52;100049.80;101982;1332;61312;-82
2022/11/19 06:10:24;;;;;;;;;;;;;;;17.72;48.53;100057.09;101788;1336;60486;-80
2022/11/19 06:12:51;;;;;;;;;;;;;;;17.72;48.63;100065.06;101795;1332;61368;-81
2022/11/19 06:15:16;;;;;;;;;;;;;;;17.72;48.53;100069.52;101768;1333;73658;-82
2022/11/19 06:17:42;;;;;;;;;;;;;;;17.73;48.68;100084.78;101891;1327;61398;-81
2022/11/19 06:20:09;;;;;;;;;;;;;;;17.73;48.57;100090.09;101802;1325;61277;-82
2022/11/19 06:22:35;;;;;;;;;;;;;;;17.73;48.72;100094.34;101783;1328;61414;-82
2022/11/19 06:25:01;;;;;;;;;;;;;;;17.74;48.71;100090.38;101747;1329;61789;-80
2022/11/19 06:27:26;;;;;;;;;;;;;;;17.74;48.62;100096.60;101791;1331;61962;-81
2022/11/19 06:29:52;;;;;;;;;;;;;;;17.75;48.63;100102.45;101855;1335;61422;-81
2022/11/19 06:32:17;;;;;;;;;;;;;;;17.75;48.61;100110.81;101830;1328;61354;-81
2022/11/19 06:34:43;;;;;;;;;;;;;;;17.75;48.68;100115.96;101817;1329;61302;-81
2022/11/19 06:37:08;;;;;;;;;;;;;;;17.75;48.71;100115.60;101913;1328;61373;-82
2022/11/19 06:39:33;;;;;;;;;;;;;;;17.76;48.71;100118.77;101858;1329;61296;-81
2022/11/19 06:42:34;;;;;;;;;;;;;;;17.75;48.62;100128.91;101985;1329;61353;-82
2022/11/19 06:44:45;;;;;;;;;;;;;;;17.76;48.69;100153.80;101908;1332;61396;-82
2022/11/19 06:47:11;;;;;;;;;;;;;;;17.76;48.64;100162.88;101976;1329;61328;-83
2022/11/19 06:49:36;;;;;;;;;;;;;;;17.76;48.72;100177.96;101950;1335;61277;-83
2022/11/19 06:52:02;;;;;;;;;;;;;;;17.76;48.58;100185.82;101875;1334;61344;-81
2022/11/19 06:54:27;;;;;;;;;;;;;;;17.76;48.66;100196.31;101945;1333;61382;-81
2022/11/19 06:56:52;;;;;;;;;;;;;;;17.76;48.53;100200.58;101935;1331;61369;-82
2022/11/19 06:59:18;;;;;;;;;;;;;;;17.76;48.59;100201.13;101892;1329;59390;-82
2022/11/19 07:01:43;;;;;;;;;;;;;;;17.76;48.69;100212.17;101846;1329;61416;-82
2022/11/19 07:04:09;;;;;;;;;;;;;;;17.76;48.42;100223.39;101895;1332;61415;-82
2022/11/19 07:06:58;;;;;;;;;;;;;;;17.76;48.52;100226.94;101885;1332;61337;-82
2022/11/19 07:09:23;;;;;;;;;;;;;;;17.76;48.52;100234.61;101761;1333;61368;-82
2022/11/19 07:11:48;;;;;;;;;;;;;;;17.76;48.52;100238.53;101692;1339;61415;-83
2022/11/19 07:14:14;;;;;;;;;;;;;;;17.76;48.46;100236.55;101698;1342;61438;-82
2022/11/19 07:16:39;;;;;;;;;;;;;;;17.76;48.55;100239.22;101744;1340;61345;-82
2022/11/19 07:19:05;;;;;;;;;;;;;;;17.76;48.51;100246.17;101742;1342;61520;-82
2022/11/19 07:21:32;;;;;;;;;;;;;;;17.76;48.60;100252.02;101711;1329;61240;-82
2022/11/19 07:23:58;;;;;;;;;;;;;;;17.76;48.55;100247.95;101764;1334;73573;-82
2022/11/19 07:26:23;;;;;;;;;;;;;;;17.76;48.57;100248.27;101751;1329;61316;-82
2022/11/19 07:28:49;;;;;;;;;;;;;;;17.76;48.43;100248.98;101768;1331;61332;-82
2022/11/19 07:31:14;;;;;;;;;;;;;;;17.76;48.48;100249.89;101737;1335;61267;-82
2022/11/19 07:33:39;;;;;;;;;;;;;;;17.76;48.54;100242.27;101835;1339;61414;-82
2022/11/19 07:36:06;;;;;;;;;;;;;;;17.76;48.51;100245.46;101763;1338;72600;-83
2022/11/19 07:38:31;;;;;;;;;;;;;;;17.76;48.54;100248.98;101792;1334;61436;-83
2022/11/19 07:40:57;;;;;;;;;;;;;;;17.76;48.45;100261.27;101835;1331;62048;-82
2022/11/19 07:43:22;;;;;;;;;;;;;;;17.76;48.56;100265.41;101796;1333;61447;-82
2022/11/19 07:45:47;;;;;;;;;;;;;;;17.76;48.40;100270.21;101783;1334;61503;-82
2022/11/19 07:48:13;;;;;;;;;;;;;;;17.76;48.44;100268.41;102011;1332;61313;-81
2022/11/19 07:50:39;;;;;;;;;;;;;;;17.76;48.60;100272.87;102040;1331;61322;-82
2022/11/19 07:53:05;;;;;;;;;;;;;;;17.76;48.50;100282.10;101967;1334;61322;-82
2022/11/19 07:55:31;;;;;;;;;;;;;;;17.76;48.50;100274.30;102065;1323;61419;-82
2022/11/19 07:57:56;;;;;;;;;;;;;;;17.75;48.46;100282.85;101961;1328;59978;-82
2022/11/19 08:00:22;;;;;;;;;;;;;;;17.76;48.59;100290.14;101949;1327;61435;-82
2022/11/19 08:02:48;;;;;;;;;;;;;;;17.75;48.40;100290.68;101995;1332;61289;-82
2022/11/19 08:05:14;;;;;;;;;;;;;;;17.76;48.41;100289.06;101790;1331;61185;-82
2022/11/19 08:07:40;;;;;;;;;;;;;;;17.76;48.46;100298.31;101980;1320;61389;-82
2022/11/19 08:10:05;;;;;;;;;;;;;;;17.76;48.53;100308.80;101853;1328;61314;-82
2022/11/19 08:12:31;;;;;;;;;;;;;;;17.77;48.44;100305.40;101817;1328;61296;-82
2022/11/19 08:14:56;;;;;;;;;;;;;;;17.77;48.48;100318.36;101865;1328;61294;-82
2022/11/19 08:20:06;;;;;;;;;;;;;;;17.79;48.55;100341.77;101896;1327;61289;-82
2022/11/19 08:22:32;;;;;;;;;;;;;;;17.79;48.40;100336.60;101845;1329;61274;-82
2022/11/19 08:24:57;;;;;;;;;;;;;;;17.79;48.51;100344.44;101839;1329;61400;-82
2022/11/19 08:27:23;;;;;;;;;;;;;;;17.79;48.61;100353.13;101793;1329;61346;-83
2022/11/19 08:29:48;;;;;;;;;;;;;;;17.80;48.37;100363.95;101912;1328;61272;-82
2022/11/19 08:32:13;;;;;;;;;;;;;;;17.80;48.40;100363.07;101936;1333;61258;-82
2022/11/19 08:34:39;;;;;;;;;;;;;;;17.80;48.40;100363.92;101823;1329;62533;-83
2022/11/19 08:37:04;;;;;;;;;;;;;;;17.80;48.36;100372.83;101871;1329;61366;-82
2022/11/19 08:39:30;;;;;;;;;;;;;;;17.80;48.52;100380.48;101915;1328;61967;-81
2022/11/19 08:44:40;;;;;;;;;;;;;;;17.80;48.47;100380.84;101968;1329;61320;-82
2022/11/19 08:47:06;;;;;;;;;;;;;;;17.80;48.36;100387.05;101896;1332;61483;-83
2022/11/19 08:49:31;;;;;;;;;;;;;;;17.80;48.41;100393.13;101890;1331;61284;-82
2022/11/19 08:51:56;;;;;;;;;;;;;;;17.80;48.46;100400.23;101939;1328;61403;-82
2022/11/19 08:54:22;;;;;;;;;;;;;;;17.80;48.55;100400.06;101935;1331;61348;-82
2022/11/19 08:56:47;;;;;;;;;;;;;;;17.80;48.46;100398.08;101904;1322;61277;-82
2022/11/19 08:59:13;;;;;;;;;;;;;;;17.81;48.53;100403.96;101929;1328;61354;-82
2022/11/19 09:01:38;;;;;;;;;;;;;;;17.80;48.39;100410.19;101881;1329;61392;-82
2022/11/19 09:04:04;;;;;;;;;;;;;;;17.81;48.41;100407.30;101910;1331;61353;-83
2022/11/19 09:06:29;;;;;;;;;;;;;;;17.81;48.29;100409.45;101922;1329;61277;-82
2022/11/19 09:08:54;;;;;;;;;;;;;;;17.81;48.36;100409.79;101886;1332;61314;-82
2022/11/19 09:11:20;;;;;;;;;;;;;;;17.82;48.30;100416.66;101901;1328;61392;-82
2022/11/19 09:13:45;;;;;;;;;;;;;;;17.83;48.39;100414.83;101896;1331;61254;-82
2022/11/19 09:16:11;;;;;;;;;;;;;;;17.84;48.35;100412.83;101905;1329;61439;-82
2022/11/19 09:18:38;;;;;;;;;;;;;;;17.84;48.22;100417.41;101990;1332;61278;-82
2022/11/19 09:21:03;;;;;;;;;;;;;;;17.85;48.37;100417.15;101907;1329;61348;-82
2022/11/19 09:23:29;;;;;;;;;;;;;;;17.87;48.44;100415.65;101910;1333;61321;-83
2022/11/19 09:25:58;;;;;;;;;;;;;;;17.87;48.29;100416.70;101938;1328;61481;-83
2022/11/19 09:28:23;;;;;;;;;;;;;;;17.88;48.40;100420.18;101873;1331;61254;-82
2022/11/19 09:30:56;;;;;;;;;;;;;;;17.89;48.41;100422.27;101956;1329;61422;-82
2022/11/19 09:33:21;;;;;;;;;;;;;;;17.90;48.42;100423.28;101981;1330;73482;-82
2022/11/19 09:35:47;;;;;;;;;;;;;;;17.90;48.27;100426.45;101964;1328;61743;-82
2022/11/19 09:38:12;;;;;;;;;;;;;;;17.92;48.30;100428.33;101958;1323;61409;-82
2022/11/19 09:40:37;;;;;;;;;;;;;;;17.93;48.34;100432.00;102043;1328;61345;-82
2022/11/19 09:43:08;;;;;;;;;;;;;;;17.95;48.25;100432.30;102003;1327;61337;-83
2022/11/19 09:45:42;;;;;;;;;;;;;;;17.96;48.31;100438.81;101976;1327;72977;-82
2022/11/19 09:48:11;;;;;;;;;;;;;;;17.96;48.27;100441.13;102037;1327;74900;-82
2022/11/19 09:50:44;;;;;;;;;;;;;;;17.97;48.30;100446.20;102047;1327;61286;-82
2022/11/19 09:53:15;;;;;;;;;;;;;;;17.98;48.18;100454.71;102060;1329;61323;-82
2022/11/19 09:55:42;;;;;;;;;;;;;;;17.98;48.22;100465.52;102056;1328;73633;-82
2022/11/19 09:58:37;;;;;;;;;;;;;;;17.99;48.35;100465.65;102015;1328;75819;-83
2022/11/19 10:01:03;;;;;;;;;;;;;;;18.00;48.22;100467.22;101784;1335;62469;-82
2022/11/19 10:03:28;;;;;;;;;;;;;;;18.00;48.15;100467.88;101788;1335;61515;-82
2022/11/19 10:05:56;;;;;;;;;;;;;;;18.00;48.35;100465.02;101721;1334;61346;-82
2022/11/19 10:08:22;;;;;;;;;;;;;;;18.01;48.23;100461.60;101755;1318;61201;-82
2022/11/19 10:10:51;;;;;;;;;;;;;;;18.01;48.19;100461.98;101711;1333;61372;-82
2022/11/19 10:13:16;;;;;;;;;;;;;;;18.01;48.18;100461.59;101735;1338;61235;-82
2022/11/19 10:15:42;;;;;;;;;;;;;;;18.01;48.29;100461.23;101772;1337;61347;-82
2022/11/19 10:18:25;;;;;;;;;;;;;;;18.02;48.26;100463.52;101771;1334;61321;-83
2022/11/19 10:20:57;;;;;;;;;;;;;;;18.01;48.28;100461.39;101786;1334;61484;-83
2022/11/19 10:23:59;;;;;;;;;;;;;;;18.02;48.26;100456.58;101767;1334;61357;-83
2022/11/19 10:26:35;;;;;;;;;;;;;;;18.02;48.20;100463.52;101475;1346;73625;-82
2022/11/19 10:29:00;;;;;;;;;;;;;;;18.02;48.15;100466.87;101667;1334;75640;-83
2022/11/19 10:31:32;;;;;;;;;;;;;;;18.02;48.18;100460.84;101739;1334;61593;-83
2022/11/19 10:34:16;;;;;;;;;;;;;;;18.01;48.20;100460.16;101793;1334;61317;-83
2022/11/19 10:36:43;;;;;;;;;;;;;;;18.01;48.26;100458.22;101783;1334;72550;-83
2022/11/19 10:39:08;;;;;;;;;;;;;;;18.01;48.06;100462.30;101962;1328;75548;-83
2022/11/19 10:41:41;;;;;;;;;;;;;;;18.01;48.22;100466.43;102047;1328;61307;-83
2022/11/19 10:44:37;;;;;;;;;;;;;;;18.00;48.28;100465.95;101967;1333;61312;-82
2022/11/19 10:47:06;;;;;;;;;;;;;;;18.00;48.27;100465.44;101965;1328;73400;-82
2022/11/19 10:49:33;;;;;;;;;;;;;;;17.99;48.16;100474.72;101985;1328;74749;-82
2022/11/19 10:51:59;;;;;;;;;;;;;;;17.99;48.19;100475.46;101954;1333;62941;-82
2022/11/19 10:54:24;;;;;;;;;;;;;;;17.98;48.20;100468.75;101990;1328;61319;-82
2022/11/19 10:56:50;;;;;;;;;;;;;;;17.98;48.24;100471.25;102072;1326;61416;-83
2022/11/19 10:59:23;;;;;;;;;;;;;;;17.97;48.41;100468.45;101955;1328;61326;-82
2022/11/19 11:01:53;;;;;;;;;;;;;;;17.97;48.13;100467.75;102088;1334;62431;-82
2022/11/19 11:04:22;;;;;;;;;;;;;;;17.97;48.26;100476.66;102007;1319;61818;-82
2022/11/19 11:06:55;;;;;;;;;;;;;;;17.97;48.24;100476.69;101950;1328;73673;-83
2022/11/19 11:09:27;;;;;;;;;;;;;;;17.95;48.20;100474.98;102020;1327;75694;-83
2022/11/19 11:14:51;;;;;;;;;;;;;;;17.96;48.23;100468.91;102069;1328;61164;-82
2022/11/19 11:17:18;;;;;;;;;;;;;;;17.96;48.21;100463.75;102049;1328;73507;-83
2022/11/19 11:19:43;;;;;;;;;;;;;;;17.95;48.23;100461.85;101915;1335;61297;-83
2022/11/19 11:22:08;;;;;;;;;;;;;;;17.94;48.31;100468.98;101935;1332;61271;-81
2022/11/19 11:24:35;;;;;;;;;;;;;;;17.94;48.32;100469.17;101919;1329;61376;-81
2022/11/19 11:27:20;;;;;;;;;;;;;;;17.94;48.22;100473.45;101975;1322;61318;-83
2022/11/19 11:29:45;;;;;;;;;;;;;;;17.93;48.31;100471.88;101988;1328;74625;-82
2022/11/19 11:32:27;;;;;;;;;;;;;;;17.93;48.23;100466.88;101903;1331;61324;-83
2022/11/19 11:34:52;;;;;;;;;;;;;;;17.93;48.28;100462.80;101932;1336;61279;-82
2022/11/19 11:37:18;;;;;;;;;;;;;;;17.94;48.30;100459.21;101882;1334;61363;-82
2022/11/19 11:39:43;;;;;;;;;;;;;;;17.93;48.31;100451.96;101895;1331;61383;-82
2022/11/19 11:42:11;;;;;;;;;;;;;;;17.93;48.22;100437.34;101906;1334;61389;-82
2022/11/19 11:44:37;;;;;;;;;;;;;;;17.94;48.25;100441.77;101909;1328;61870;-82
2022/11/19 11:47:09;;;;;;;;;;;;;;;17.93;48.29;100454.25;101889;1325;61241;-82
2022/11/19 11:49:38;;;;;;;;;;;;;;;17.93;48.29;100460.13;101902;1331;75040;-82
2022/11/19 11:52:05;;;;;;;;;;;;;;;17.93;48.24;100466.17;101965;1328;61365;-83
2022/11/19 11:54:32;;;;;;;;;;;;;;;17.93;48.15;100469.73;101936;1331;61250;-83
2022/11/19 11:57:27;;;;;;;;;;;;;;;17.93;48.40;100470.98;101895;1331;73671;-83
2022/11/19 11:59:53;;;;;;;;;;;;;;;17.93;48.25;100462.27;101687;1326;75702;-83
2022/11/19 12:02:26;;;;;;;;;;;;;;;17.93;48.28;100468.14;101588;1341;61547;-83
2022/11/19 12:04:52;;;;;;;;;;;;;;;17.93;48.27;100470.09;101725;1334;61286;-82
2022/11/19 12:07:21;;;;;;;;;;;;;;;17.93;48.29;100467.58;101686;1334;61329;-82
2022/11/19 12:09:50;;;;;;;;;;;;;;;17.93;48.30;100472.23;101675;1341;75727;-83
2022/11/19 12:12:34;;;;;;;;;;;;;;;17.93;48.38;100484.69;101623;1337;61244;-82
2022/11/19 12:15:06;;;;;;;;;;;;;;;17.93;48.29;100488.80;101722;1335;61347;-82
2022/11/19 12:17:34;;;;;;;;;;;;;;;17.93;48.18;100492.90;101693;1331;72007;-82
2022/11/19 12:19:59;;;;;;;;;;;;;;;17.93;48.34;100496.47;101742;1337;74495;-82
2022/11/19 12:22:28;;;;;;;;;;;;;;;17.93;48.34;100502.16;101726;1342;61494;-83
2022/11/19 12:24:56;;;;;;;;;;;;;;;17.93;48.27;100498.08;101739;1333;61464;-83
2022/11/19 12:27:21;;;;;;;;;;;;;;;17.92;48.25;100498.30;101666;1337;73646;-83
2022/11/19 12:29:47;;;;;;;;;;;;;;;17.92;48.22;100502.77;101690;1337;61367;-82
2022/11/19 12:32:28;;;;;;;;;;;;;;;17.92;48.30;100508.80;101723;1332;61454;-83
2022/11/19 12:34:56;;;;;;;;;;;;;;;17.91;48.25;100513.11;101721;1335;61235;-82
2022/11/19 12:37:31;;;;;;;;;;;;;;;17.92;48.18;100513.80;101972;1326;72576;-82
2022/11/19 12:40:14;;;;;;;;;;;;;;;17.91;48.22;100504.59;101940;1332;75968;-82
2022/11/19 12:42:54;;;;;;;;;;;;;;;17.91;48.24;100503.86;101936;1329;61657;-83
2022/11/19 12:45:40;;;;;;;;;;;;;;;17.91;48.24;100504.41;102064;1328;61496;-83
2022/11/19 12:48:15;;;;;;;;;;;;;;;17.91;48.13;100505.46;102014;1330;73573;-81
2022/11/19 12:51:02;;;;;;;;;;;;;;;17.90;48.12;100505.67;101931;1328;75425;-82
2022/11/19 12:53:35;;;;;;;;;;;;;;;17.91;48.22;100515.62;102044;1328;61312;-82
2022/11/19 12:56:01;;;;;;;;;;;;;;;17.91;48.34;100524.18;101947;1329;61377;-82
2022/11/19 12:58:34;;;;;;;;;;;;;;;17.91;48.13;100523.08;101959;1329;61402;-82